Butes — A8UR6 — position and weather

sailwx.info

Track history (hours):
 
Tides and Currents Weather Stations Pressure Air Temp Water Temp Dewpoint Dewpoint Depression Visibility Wind Speed Wind Dir Waves Ship Positions

Butes

Last reported at 2017-Aug-17 18:59 UTC. Time now 2017-Aug-18 12:51 UTC.
Position N 48°03' W 006°10'.

Length 90 m; draft 3.5 m.

Type: Cargo ship. MMSI: 636091937.

Date/timePositionNaut miles runAvg speedWind from/ knotsBaromVisibWave heightAir tempDewpointWater temp
2017-Aug-17 18:59N 48°03' W 006°10'110 8.5
2017-Aug-17 06:01N 49°27' W 004°21'0 9.5
2017-Aug-17 06:00N 49°27' W 004°21'5 9.1
2017-Aug-17 05:28N 49°30' W 004°14'4 8.8
2017-Aug-17 04:59N 49°32' W 004°09'4 8.4
2017-Aug-17 04:30N 49°34' W 004°04'4 8.1
2017-Aug-17 04:00N 49°36' W 003°58'4 7.6
2017-Aug-17 03:30N 49°38' W 003°53'4 7.1
2017-Aug-17 03:00N 49°40' W 003°48'3 6.8
2017-Aug-17 02:29N 49°42' W 003°44'3 6.2
2017-Aug-17 02:00N 49°43' W 003°40'9 5.8
2017-Aug-17 00:29N 49°48' W 003°28'3 6.1
2017-Aug-16 23:55N 49°50' W 003°24'3 6.3
2017-Aug-16 23:30N 49°51' W 003°20'3 6.9
2017-Aug-16 23:00N 49°53' W 003°16'4 7.8
2017-Aug-16 22:30N 49°55' W 003°11'4 8.8
2017-Aug-16 22:00N 49°57' W 003°05'5 9.7
2017-Aug-16 21:31N 49°60' W 002°59'510.2
2017-Aug-16 20:59N 50°02' W 002°51'1911.2
2017-Aug-16 19:14N 50°07' W 002°21'311.4
2017-Aug-16 19:00N 50°08' W 002°17'611.1
2017-Aug-16 18:30N 50°09' W 002°09'510.6
2017-Aug-16 18:00N 50°10' W 002°01'7 9.9
2017-Aug-16 17:19N 50°12' W 001°50'4 9.2
2017-Aug-16 16:54N 50°13' W 001°45'4 8.8
2017-Aug-16 16:30N 50°14' W 001°39'4 8.4
2017-Aug-16 15:59N 50°15' W 001°33'4 7.9
2017-Aug-16 15:30N 50°16' W 001°27'4 7.6
2017-Aug-16 15:00N 50°17' W 001°22'7 7.4
2017-Aug-16 14:02N 50°19' W 001°11'31 9.0
2017-Aug-16 10:34N 50°27' W 000°24'110.4
2017-Aug-16 10:30N 50°27' W 000°23'510.5
2017-Aug-16 10:00N 50°29' W 000°15'510.8
2017-Aug-16 09:30N 50°30' W 000°07'510.7
2017-Aug-16 09:00N 50°31' E 000°01'510.6
2017-Aug-16 08:30N 50°33' E 000°09'510.7
2017-Aug-16 08:00N 50°34' E 000°17'610.9
2017-Aug-16 07:30N 50°36' E 000°26'510.6
2017-Aug-16 07:00N 50°37' E 000°34'510.3
2017-Aug-16 06:30N 50°40' E 000°40'510.0
2017-Aug-16 05:59N 50°44' E 000°47'5 9.6
2017-Aug-16 05:30N 50°46' E 000°53'9 9.4
2017-Aug-16 04:31N 50°52' E 001°04'7 9.3
2017-Aug-16 03:48N 50°56' E 001°12'3 9.5
2017-Aug-16 03:29N 50°58' E 001°16'5 9.9
2017-Aug-16 03:00N 51°01' E 001°22'510.9
2017-Aug-16 02:30N 51°05' E 001°28'611.9
2017-Aug-16 02:01N 51°08' E 001°36'612.0
2017-Aug-16 01:30N 51°12' E 001°43'612.0
2017-Aug-16 01:00N 51°17' E 001°49'611.9
2017-Aug-16 00:30N 51°22' E 001°54'611.4
2017-Aug-16 00:00N 51°27' E 001°59'510.7
2017-Aug-15 23:30N 51°31' E 002°05'510.3
2017-Aug-15 23:00N 51°35' E 002°10'510.1
2017-Aug-15 22:30N 51°38' E 002°16'5 9.7
2017-Aug-15 22:00N 51°42' E 002°21'5 9.4
2017-Aug-15 21:31N 51°45' E 002°26'5 9.2
2017-Aug-15 21:00N 51°49' E 002°31'3713.8
2017-Aug-15 18:20N 52°03' E 003°27'0 0.0
2017-Aug-15 18:00N 52°03' E 003°27'0 0.0
2017-Aug-15 17:30N 52°03' E 003°27'0 0.0
2017-Aug-15 17:00N 52°03' E 003°27'918.7
2017-Aug-15 16:30N 52°03' E 003°42'1 1.2
2017-Aug-15 16:00N 52°03' E 003°43'612.1
2017-Aug-15 15:30N 52°03' E 003°53'510.9
2017-Aug-15 15:00N 52°00' E 004°01'612.9
2017-Aug-15 14:30N 51°57' E 004°10'612.6
2017-Aug-15 14:00N 51°54' E 004°18'510.1
2017-Aug-15 13:30N 51°54' E 004°27'1 1.0
2017-Aug-15 13:00N 51°54' E 004°28'0 0.0
2017-Aug-15 12:30N 51°54' E 004°28'0 0.0
2017-Aug-15 12:00N 51°54' E 004°28'0 0.0
2017-Aug-15 11:30N 51°54' E 004°28'0 0.0
2017-Aug-15 11:00N 51°54' E 004°28'0 0.0
2017-Aug-15 10:30N 51°54' E 004°28'0 0.0
2017-Aug-15 10:00N 51°54' E 004°28'0 0.0
2017-Aug-15 09:29N 51°54' E 004°28'0 0.0
2017-Aug-15 08:59N 51°54' E 004°28'0 0.0
2017-Aug-15 08:30N 51°54' E 004°28'0 0.0
2017-Aug-15 08:00N 51°54' E 004°28'0 0.0
2017-Aug-15 07:30N 51°54' E 004°28'0 0.0
2017-Aug-15 07:00N 51°54' E 004°28'0 0.0
2017-Aug-15 06:30N 51°54' E 004°28'0 0.0
2017-Aug-15 06:00N 51°54' E 004°28'0 0.0
2017-Aug-15 05:30N 51°54' E 004°28'0 0.0
2017-Aug-15 05:00N 51°54' E 004°28'0 0.0
2017-Aug-15 04:30N 51°54' E 004°28'0 0.0
2017-Aug-15 04:00N 51°54' E 004°28'0 0.0
2017-Aug-15 03:30N 51°54' E 004°28'0 0.0
2017-Aug-15 03:00N 51°54' E 004°28'0 0.0
2017-Aug-15 02:30N 51°54' E 004°28'0 0.0
2017-Aug-15 02:00N 51°54' E 004°28'0 0.0
2017-Aug-15 01:30N 51°54' E 004°28'0 0.0
2017-Aug-15 01:00N 51°54' E 004°28'0 0.0
2017-Aug-15 00:30N 51°54' E 004°28'0 0.0
2017-Aug-15 00:00N 51°54' E 004°28'0 0.0
2017-Aug-14 23:30N 51°54' E 004°28'0 0.0
2017-Aug-14 23:00N 51°54' E 004°28'0 0.0
2017-Aug-14 22:29N 51°54' E 004°28'0 0.0
2017-Aug-14 22:00N 51°54' E 004°28'0 0.0
2017-Aug-14 21:30N 51°54' E 004°28'0 0.0
2017-Aug-14 21:00N 51°54' E 004°28'0 0.0
2017-Aug-14 20:30N 51°54' E 004°28'0 0.0
2017-Aug-14 20:00N 51°54' E 004°28'0 0.0
2017-Aug-14 19:30N 51°54' E 004°28'0 0.0
2017-Aug-14 19:00N 51°54' E 004°28'0 0.0
2017-Aug-14 18:30N 51°54' E 004°28'0 0.0
2017-Aug-14 18:00N 51°54' E 004°28'0 0.0
2017-Aug-14 17:30N 51°54' E 004°28'0 0.0
2017-Aug-14 17:00N 51°54' E 004°28'0 0.0
2017-Aug-14 16:29N 51°54' E 004°28'0 0.0
2017-Aug-14 16:00N 51°54' E 004°28'0 0.0
2017-Aug-14 15:29N 51°54' E 004°28'0 0.0
2017-Aug-14 15:00N 51°54' E 004°28'0 0.0
2017-Aug-14 14:30N 51°54' E 004°28'0 0.0
2017-Aug-14 14:00N 51°54' E 004°28'0 0.0
2017-Aug-14 13:30N 51°54' E 004°28'0 0.0
2017-Aug-14 13:00N 51°54' E 004°28'0 0.0
2017-Aug-14 12:30N 51°54' E 004°28'0 0.0
2017-Aug-14 11:59N 51°54' E 004°28'0 0.0
2017-Aug-14 11:30N 51°54' E 004°28'0 0.0
2017-Aug-14 11:00N 51°54' E 004°28'0 0.0
2017-Aug-14 10:30N 51°54' E 004°28'0 0.0
2017-Aug-14 10:00N 51°54' E 004°28'0 0.1
2017-Aug-14 09:30N 51°54' E 004°27'4 7.6
2017-Aug-14 09:00N 51°54' E 004°21'3 6.1
2017-Aug-14 08:30N 51°53' E 004°16'0 0.0
2017-Aug-14 08:00N 51°53' E 004°16'0 0.0
2017-Aug-14 07:30N 51°53' E 004°16'0 0.0
2017-Aug-14 07:00N 51°53' E 004°16'0 0.0
2017-Aug-14 06:30N 51°53' E 004°16'0 0.0
2017-Aug-14 06:00N 51°53' E 004°16'0 0.0
2017-Aug-14 05:30N 51°53' E 004°16'0 0.0
2017-Aug-14 05:00N 51°53' E 004°16'0 0.0
2017-Aug-14 04:30N 51°53' E 004°16'0 0.0
2017-Aug-14 04:00N 51°53' E 004°16'0 0.0
2017-Aug-14 03:30N 51°53' E 004°16'0 0.0
2017-Aug-14 03:00N 51°53' E 004°16'0 0.0
2017-Aug-14 02:30N 51°53' E 004°16'0 0.0
2017-Aug-14 02:00N 51°53' E 004°16'0 0.0
2017-Aug-14 01:30N 51°53' E 004°16'0 0.0
2017-Aug-14 01:00N 51°53' E 004°16'0 0.0
2017-Aug-14 00:30N 51°53' E 004°16'0 0.0
2017-Aug-14 00:00N 51°53' E 004°16'0 0.0
2017-Aug-13 23:30N 51°53' E 004°16'0 0.0
2017-Aug-13 23:00N 51°53' E 004°16'0 0.0
2017-Aug-13 22:30N 51°53' E 004°16'0 0.0
2017-Aug-13 22:00N 51°53' E 004°16'0 0.0
2017-Aug-13 21:30N 51°53' E 004°16'0 0.0
2017-Aug-13 21:00N 51°53' E 004°16'0 0.5
2017-Aug-13 20:31N 51°53' E 004°17'1 1.6
2017-Aug-13 20:00N 51°54' E 004°18'4 8.8
2017-Aug-13 19:31N 51°56' E 004°12'510.0
2017-Aug-13 19:01N 51°59' E 004°05'510.0
2017-Aug-13 18:31N 52°00' E 003°57'611.6
2017-Aug-13 18:00N 51°60' E 003°47'1932.1
2017-Aug-13 17:24N 51°54' E 003°18'0 0.0
2017-Aug-13 17:00N 51°54' E 003°18'0 0.0
2017-Aug-13 16:30N 51°54' E 003°18'3 6.2
2017-Aug-13 16:00N 51°53' E 003°13'37 9.2
2017-Aug-13 11:59N 51°34' E 002°22'4 8.1
2017-Aug-13 11:30N 51°31' E 002°18'4 8.1
2017-Aug-13 11:00N 51°27' E 002°14'4 8.3
2017-Aug-13 10:30N 51°23' E 002°11'4 7.4
2017-Aug-13 10:00N 51°20' E 002°09'5 8.7
2017-Aug-13 09:29N 51°16' E 002°06'5 8.3
2017-Aug-13 08:53N 51°13' E 001°60'3 8.9
2017-Aug-13 08:30N 51°11' E 001°55'5 8.9
2017-Aug-13 08:00N 51°09' E 001°49'5 9.3
2017-Aug-13 07:30N 51°05' E 001°44'5 9.6
2017-Aug-13 06:59N 51°02' E 001°38'11110.6
2017-Aug-12 20:30N 50°09' W 000°56'5 9.6
2017-Aug-12 20:00N 50°09' W 001°03'6 8.9
2017-Aug-12 19:16N 50°07' W 001°13'2 8.3
2017-Aug-12 19:00N 50°07' W 001°16'4 7.7
2017-Aug-12 18:31N 50°06' W 001°22'4 7.2
2017-Aug-12 17:59N 50°04' W 001°28'3 6.8
2017-Aug-12 17:30N 50°03' W 001°33'3 6.4
2017-Aug-12 17:00N 50°02' W 001°37'3 6.2
2017-Aug-12 16:30N 50°02' W 001°42'3 6.4
2017-Aug-12 16:01N 50°01' W 001°47'3 6.9
2017-Aug-12 15:30N 49°60' W 001°52'4 7.6
2017-Aug-12 15:00N 49°59' W 001°57'5410.5
2017-Aug-12 09:49N 49°39' W 003°16'3211.4
2017-Aug-12 07:02N 49°23' W 003°58'411.2
2017-Aug-12 06:43N 49°21' W 004°03'53 9.3
2017-Aug-12 00:58N 48°54' W 005°14'41 7.7
2017-Aug-11 19:38N 48°21' W 005°52'6 9.4
2017-Aug-11 18:58N 48°15' W 005°54'10 9.9
2017-Aug-11 17:58N 48°06' W 005°58'1110.5
2017-Aug-11 16:58N 47°55' W 006°01'  
Track history (hours):
 
Tides and Currents Weather Stations Pressure Air Temp Water Temp Dewpoint Dewpoint Depression Visibility Wind Speed Wind Dir Waves Ship Positions

Butes

Last reported at 2017-Aug-17 18:59 UTC. Time now 2017-Aug-18 12:51 UTC.
Position N 48°03' W 006°10'.

Length 90 m; draft 3.5 m.

Type: Cargo ship. MMSI: 636091937.

Date/timePositionNaut miles runAvg speedWind from/ knotsBaromVisibWave heightAir tempDewpointWater temp
2017-Aug-17 18:59N 48°03' W 006°10'110 8.5
2017-Aug-17 06:01N 49°27' W 004°21'0 9.5
2017-Aug-17 06:00N 49°27' W 004°21'5 9.1
2017-Aug-17 05:28N 49°30' W 004°14'4 8.8
2017-Aug-17 04:59N 49°32' W 004°09'4 8.4
2017-Aug-17 04:30N 49°34' W 004°04'4 8.1
2017-Aug-17 04:00N 49°36' W 003°58'4 7.6
2017-Aug-17 03:30N 49°38' W 003°53'4 7.1
2017-Aug-17 03:00N 49°40' W 003°48'3 6.8
2017-Aug-17 02:29N 49°42' W 003°44'3 6.2
2017-Aug-17 02:00N 49°43' W 003°40'9 5.8
2017-Aug-17 00:29N 49°48' W 003°28'3 6.1
2017-Aug-16 23:55N 49°50' W 003°24'3 6.3
2017-Aug-16 23:30N 49°51' W 003°20'3 6.9
2017-Aug-16 23:00N 49°53' W 003°16'4 7.8
2017-Aug-16 22:30N 49°55' W 003°11'4 8.8
2017-Aug-16 22:00N 49°57' W 003°05'5 9.7
2017-Aug-16 21:31N 49°60' W 002°59'510.2
2017-Aug-16 20:59N 50°02' W 002°51'1911.2
2017-Aug-16 19:14N 50°07' W 002°21'311.4
2017-Aug-16 19:00N 50°08' W 002°17'611.1
2017-Aug-16 18:30N 50°09' W 002°09'510.6
2017-Aug-16 18:00N 50°10' W 002°01'7 9.9
2017-Aug-16 17:19N 50°12' W 001°50'4 9.2
2017-Aug-16 16:54N 50°13' W 001°45'4 8.8
2017-Aug-16 16:30N 50°14' W 001°39'4 8.4
2017-Aug-16 15:59N 50°15' W 001°33'4 7.9
2017-Aug-16 15:30N 50°16' W 001°27'4 7.6
2017-Aug-16 15:00N 50°17' W 001°22'7 7.4
2017-Aug-16 14:02N 50°19' W 001°11'31 9.0
2017-Aug-16 10:34N 50°27' W 000°24'110.4
2017-Aug-16 10:30N 50°27' W 000°23'510.5
2017-Aug-16 10:00N 50°29' W 000°15'510.8
2017-Aug-16 09:30N 50°30' W 000°07'510.7
2017-Aug-16 09:00N 50°31' E 000°01'510.6
2017-Aug-16 08:30N 50°33' E 000°09'510.7
2017-Aug-16 08:00N 50°34' E 000°17'610.9
2017-Aug-16 07:30N 50°36' E 000°26'510.6
2017-Aug-16 07:00N 50°37' E 000°34'510.3
2017-Aug-16 06:30N 50°40' E 000°40'510.0
2017-Aug-16 05:59N 50°44' E 000°47'5 9.6
2017-Aug-16 05:30N 50°46' E 000°53'9 9.4
2017-Aug-16 04:31N 50°52' E 001°04'7 9.3
2017-Aug-16 03:48N 50°56' E 001°12'3 9.5
2017-Aug-16 03:29N 50°58' E 001°16'5 9.9
2017-Aug-16 03:00N 51°01' E 001°22'510.9
2017-Aug-16 02:30N 51°05' E 001°28'611.9
2017-Aug-16 02:01N 51°08' E 001°36'612.0
2017-Aug-16 01:30N 51°12' E 001°43'612.0
2017-Aug-16 01:00N 51°17' E 001°49'611.9
2017-Aug-16 00:30N 51°22' E 001°54'611.4
2017-Aug-16 00:00N 51°27' E 001°59'510.7
2017-Aug-15 23:30N 51°31' E 002°05'510.3
2017-Aug-15 23:00N 51°35' E 002°10'510.1
2017-Aug-15 22:30N 51°38' E 002°16'5 9.7
2017-Aug-15 22:00N 51°42' E 002°21'5 9.4
2017-Aug-15 21:31N 51°45' E 002°26'5 9.2
2017-Aug-15 21:00N 51°49' E 002°31'3713.8
2017-Aug-15 18:20N 52°03' E 003°27'0 0.0
2017-Aug-15 18:00N 52°03' E 003°27'0 0.0
2017-Aug-15 17:30N 52°03' E 003°27'0 0.0
2017-Aug-15 17:00N 52°03' E 003°27'918.7
2017-Aug-15 16:30N 52°03' E 003°42'1 1.2
2017-Aug-15 16:00N 52°03' E 003°43'612.1
2017-Aug-15 15:30N 52°03' E 003°53'510.9
2017-Aug-15 15:00N 52°00' E 004°01'612.9
2017-Aug-15 14:30N 51°57' E 004°10'612.6
2017-Aug-15 14:00N 51°54' E 004°18'510.1
2017-Aug-15 13:30N 51°54' E 004°27'1 1.0
2017-Aug-15 13:00N 51°54' E 004°28'0 0.0
2017-Aug-15 12:30N 51°54' E 004°28'0 0.0
2017-Aug-15 12:00N 51°54' E 004°28'0 0.0
2017-Aug-15 11:30N 51°54' E 004°28'0 0.0
2017-Aug-15 11:00N 51°54' E 004°28'0 0.0
2017-Aug-15 10:30N 51°54' E 004°28'0 0.0
2017-Aug-15 10:00N 51°54' E 004°28'0 0.0
2017-Aug-15 09:29N 51°54' E 004°28'0 0.0
2017-Aug-15 08:59N 51°54' E 004°28'0 0.0
2017-Aug-15 08:30N 51°54' E 004°28'0 0.0
2017-Aug-15 08:00N 51°54' E 004°28'0 0.0
2017-Aug-15 07:30N 51°54' E 004°28'0 0.0
2017-Aug-15 07:00N 51°54' E 004°28'0 0.0
2017-Aug-15 06:30N 51°54' E 004°28'0 0.0
2017-Aug-15 06:00N 51°54' E 004°28'0 0.0
2017-Aug-15 05:30N 51°54' E 004°28'0 0.0
2017-Aug-15 05:00N 51°54' E 004°28'0 0.0
2017-Aug-15 04:30N 51°54' E 004°28'0 0.0
2017-Aug-15 04:00N 51°54' E 004°28'0 0.0
2017-Aug-15 03:30N 51°54' E 004°28'0 0.0
2017-Aug-15 03:00N 51°54' E 004°28'0 0.0
2017-Aug-15 02:30N 51°54' E 004°28'0 0.0
2017-Aug-15 02:00N 51°54' E 004°28'0 0.0
2017-Aug-15 01:30N 51°54' E 004°28'0 0.0
2017-Aug-15 01:00N 51°54' E 004°28'0 0.0
2017-Aug-15 00:30N 51°54' E 004°28'0 0.0
2017-Aug-15 00:00N 51°54' E 004°28'0 0.0
2017-Aug-14 23:30N 51°54' E 004°28'0 0.0
2017-Aug-14 23:00N 51°54' E 004°28'0 0.0
2017-Aug-14 22:29N 51°54' E 004°28'0 0.0
2017-Aug-14 22:00N 51°54' E 004°28'0 0.0
2017-Aug-14 21:30N 51°54' E 004°28'0 0.0
2017-Aug-14 21:00N 51°54' E 004°28'0 0.0
2017-Aug-14 20:30N 51°54' E 004°28'0 0.0
2017-Aug-14 20:00N 51°54' E 004°28'0 0.0
2017-Aug-14 19:30N 51°54' E 004°28'0 0.0
2017-Aug-14 19:00N 51°54' E 004°28'0 0.0
2017-Aug-14 18:30N 51°54' E 004°28'0 0.0
2017-Aug-14 18:00N 51°54' E 004°28'0 0.0
2017-Aug-14 17:30N 51°54' E 004°28'0 0.0
2017-Aug-14 17:00N 51°54' E 004°28'0 0.0
2017-Aug-14 16:29N 51°54' E 004°28'0 0.0
2017-Aug-14 16:00N 51°54' E 004°28'0 0.0
2017-Aug-14 15:29N 51°54' E 004°28'0 0.0
2017-Aug-14 15:00N 51°54' E 004°28'0 0.0
2017-Aug-14 14:30N 51°54' E 004°28'0 0.0
2017-Aug-14 14:00N 51°54' E 004°28'0 0.0
2017-Aug-14 13:30N 51°54' E 004°28'0 0.0
2017-Aug-14 13:00N 51°54' E 004°28'0 0.0
2017-Aug-14 12:30N 51°54' E 004°28'0 0.0
2017-Aug-14 11:59N 51°54' E 004°28'0 0.0
2017-Aug-14 11:30N 51°54' E 004°28'0 0.0
2017-Aug-14 11:00N 51°54' E 004°28'0 0.0
2017-Aug-14 10:30N 51°54' E 004°28'0 0.0
2017-Aug-14 10:00N 51°54' E 004°28'0 0.1
2017-Aug-14 09:30N 51°54' E 004°27'4 7.6
2017-Aug-14 09:00N 51°54' E 004°21'3 6.1
2017-Aug-14 08:30N 51°53' E 004°16'0 0.0
2017-Aug-14 08:00N 51°53' E 004°16'0 0.0
2017-Aug-14 07:30N 51°53' E 004°16'0 0.0
2017-Aug-14 07:00N 51°53' E 004°16'0 0.0
2017-Aug-14 06:30N 51°53' E 004°16'0 0.0
2017-Aug-14 06:00N 51°53' E 004°16'0 0.0
2017-Aug-14 05:30N 51°53' E 004°16'0 0.0
2017-Aug-14 05:00N 51°53' E 004°16'0 0.0
2017-Aug-14 04:30N 51°53' E 004°16'0 0.0
2017-Aug-14 04:00N 51°53' E 004°16'0 0.0
2017-Aug-14 03:30N 51°53' E 004°16'0 0.0
2017-Aug-14 03:00N 51°53' E 004°16'0 0.0
2017-Aug-14 02:30N 51°53' E 004°16'0 0.0
2017-Aug-14 02:00N 51°53' E 004°16'0 0.0
2017-Aug-14 01:30N 51°53' E 004°16'0 0.0
2017-Aug-14 01:00N 51°53' E 004°16'0 0.0
2017-Aug-14 00:30N 51°53' E 004°16'0 0.0
2017-Aug-14 00:00N 51°53' E 004°16'0 0.0
2017-Aug-13 23:30N 51°53' E 004°16'0 0.0
2017-Aug-13 23:00N 51°53' E 004°16'0 0.0
2017-Aug-13 22:30N 51°53' E 004°16'0 0.0
2017-Aug-13 22:00N 51°53' E 004°16'0 0.0
2017-Aug-13 21:30N 51°53' E 004°16'0 0.0
2017-Aug-13 21:00N 51°53' E 004°16'0 0.5
2017-Aug-13 20:31N 51°53' E 004°17'1 1.6
2017-Aug-13 20:00N 51°54' E 004°18'4 8.8
2017-Aug-13 19:31N 51°56' E 004°12'510.0
2017-Aug-13 19:01N 51°59' E 004°05'510.0
2017-Aug-13 18:31N 52°00' E 003°57'611.6
2017-Aug-13 18:00N 51°60' E 003°47'1932.1
2017-Aug-13 17:24N 51°54' E 003°18'0 0.0
2017-Aug-13 17:00N 51°54' E 003°18'0 0.0
2017-Aug-13 16:30N 51°54' E 003°18'3 6.2
2017-Aug-13 16:00N 51°53' E 003°13'37 9.2
2017-Aug-13 11:59N 51°34' E 002°22'4 8.1
2017-Aug-13 11:30N 51°31' E 002°18'4 8.1
2017-Aug-13 11:00N 51°27' E 002°14'4 8.3
2017-Aug-13 10:30N 51°23' E 002°11'4 7.4
2017-Aug-13 10:00N 51°20' E 002°09'5 8.7
2017-Aug-13 09:29N 51°16' E 002°06'5 8.3
2017-Aug-13 08:53N 51°13' E 001°60'3 8.9
2017-Aug-13 08:30N 51°11' E 001°55'5 8.9
2017-Aug-13 08:00N 51°09' E 001°49'5 9.3
2017-Aug-13 07:30N 51°05' E 001°44'5 9.6
2017-Aug-13 06:59N 51°02' E 001°38'11110.6
2017-Aug-12 20:30N 50°09' W 000°56'5 9.6
2017-Aug-12 20:00N 50°09' W 001°03'6 8.9
2017-Aug-12 19:16N 50°07' W 001°13'2 8.3
2017-Aug-12 19:00N 50°07' W 001°16'4 7.7
2017-Aug-12 18:31N 50°06' W 001°22'4 7.2
2017-Aug-12 17:59N 50°04' W 001°28'3 6.8
2017-Aug-12 17:30N 50°03' W 001°33'3 6.4
2017-Aug-12 17:00N 50°02' W 001°37'3 6.2
2017-Aug-12 16:30N 50°02' W 001°42'3 6.4
2017-Aug-12 16:01N 50°01' W 001°47'3 6.9
2017-Aug-12 15:30N 49°60' W 001°52'4 7.6
2017-Aug-12 15:00N 49°59' W 001°57'5410.5
2017-Aug-12 09:49N 49°39' W 003°16'3211.4
2017-Aug-12 07:02N 49°23' W 003°58'411.2
2017-Aug-12 06:43N 49°21' W 004°03'53 9.3
2017-Aug-12 00:58N 48°54' W 005°14'41 7.7
2017-Aug-11 19:38N 48°21' W 005°52'6 9.4
2017-Aug-11 18:58N 48°15' W 005°54'10 9.9
2017-Aug-11 17:58N 48°06' W 005°58'1110.5
2017-Aug-11 16:58N 47°55' W 006°01'  

Dump ship's entire track history